• Join FlightAware (Why Join?)
  • Login
  • US Flag 
05:39AM EST


 

Airport Tracker/Info


-or-


 

Live Flight TrackerFlight Track Log ✈ DAL6232 ✈ 21-Apr-2013 ✈ CYHZ - KLGA

Flight Track Log - Related Links

Times and Time Zones

All times are in EDT time to prevent confusion due to time zone crossing. See the DAL6232 flight status page for this flight to view local times or setup timezone preferences in your user account.

Time Position Orientation Groundspeed Altitude Reporting Facility
EDT Latitude Longitude Course Direction KTS MPH feet Rate Location/Type
07:47AM 44.8833 -63.5167 295° West 140 161 1,600  Level Moncton Center
07:48AM 44.9000 -63.5667 295° West 190 219 4,000 2,220 Climbing Moncton Center
07:49AM 44.9167 -63.6667 283° West 220 253 6,100 2,640 Climbing Moncton Center
07:50AM 44.9000 -63.7667 257° West 230 265 9,300 2,520 Climbing Moncton Center
07:51AM 44.9000 -63.8500 270° West 240 276 11,200 2,280 Climbing Moncton Center
07:52AM 44.9000 -63.9500 270° West 270 311 13,900 2,340 Climbing Moncton Center
07:53AM 44.9000 -64.0667 270° West 280 322 15,900 2,100 Climbing Moncton Center
07:54AM 44.9000 -64.1833 270° West 300 345 18,200 1,800 Climbing Moncton Center
07:55AM 44.9000 -64.3000 270° West 310 357 19,500 1,500 Climbing Moncton Center
07:56AM 44.9000 -64.4167 270° West 320 368 21,200 1,560 Climbing Moncton Center
07:57AM 44.9000 -64.5667 270° West 320 368 22,700 1,500 Climbing Moncton Center
07:58AM 44.9000 -64.7000 270° West 330 380 24,300 1,500 Climbing Moncton Center
07:59AM 44.9000 -64.8167 270° West 340 391 25,800 1,500 Climbing Moncton Center
08:00AM 44.9000 -64.9667 270° West 340 391 27,300 1,320 Climbing Moncton Center
08:01AM 44.9000 -65.0833 270° West 340 391 28,500 1,200 Climbing Moncton Center
08:02AM 44.9000 -65.2167 270° West 340 391 29,800 1,080 Climbing Moncton Center
08:03AM 44.9000 -65.3667 270° West 340 391 30,700 780 Climbing Moncton Center
08:04AM 44.9000 -65.5000 270° West 340 391 31,400 720 Climbing Moncton Center
08:05AM 44.9000 -65.6167 270° West 350 403 32,200 720 Climbing Moncton Center
08:06AM 44.9000 -65.7667 270° West 350 403 32,900 600 Climbing Moncton Center
08:07AM 44.9000 -65.9000 270° West 350 403 33,500 540 Climbing Moncton Center
08:08AM 44.9000 -66.0500 270° West 360 414 34,000 240 Climbing Moncton Center
08:09AM 44.8833 -66.1833 260° West 350 403 34,000  Level Moncton Center
08:10AM 44.8833 -66.3333 270° West 340 391 34,000  Level Moncton Center
08:11AM 44.8833 -66.4500 270° West 330 380 34,000  Level Moncton Center
08:12AM 44.8833 -66.6000 270° West 330 380 34,000  Level Moncton Center
08:13AM 44.8833 -66.7167 270° West 330 380 34,000  Level Moncton Center
08:14AM 44.8833 -66.8333 270° West 340 391 34,000  Level Moncton Center
08:15AM 44.8833 -66.9667 270° West 340 391 34,000  Level Moncton Center
08:16AM 44.8667 -67.1167 261° West 340 391 34,000  Level Moncton Center
08:17AM 44.8667 -67.2500 270° West 340 391 34,000  Level Moncton Center
08:18AM 44.8667 -67.3667 270° West 340 391 34,000  Level Moncton Center
08:19AM 44.8667 -67.5167 270° West 340 391 34,000  Level Moncton Center
08:20AM 44.8500 -67.6500 260° West 340 391 34,000  Level Moncton Center
08:21AM 44.8767 -67.7494 291° West 348 400 34,000  Level Boston Center
08:22AM 44.8717 -67.8847 267° West 348 400 34,000  Level Boston Center
08:23AM 44.8708 -68.0253 270° West 348 400 34,000  Level Boston Center
08:24AM 44.8683 -68.1839 269° West 354 407 34,000  Level Boston Center
08:25AM 44.8631 -68.3247 267° West 360 414 34,000  Level Boston Center
08:26AM 44.8578 -68.4717 267° West 371 427 34,000  Level Boston Center
08:27AM 44.8536 -68.5981 267° West 371 427 34,000  Level Boston Center
08:28AM 44.8481 -68.7478 267° West 371 427 34,000  Level Boston Center
08:29AM 44.8358 -68.8889 263° West 371 427 34,000  Level Boston Center
08:30AM 44.7897 -69.0117 242° Southwest 354 407 34,000  Level Boston Center
08:31AM 44.7431 -69.1286 241° Southwest 354 407 34,000  Level Boston Center
08:32AM 44.6964 -69.2481 241° Southwest 354 407 34,000  Level Boston Center
08:33AM 44.6497 -69.3672 241° Southwest 354 407 34,000  Level Boston Center
08:34AM 44.5869 -69.5222 240° Southwest 354 407 34,000  Level Boston Center
08:35AM 44.5378 -69.6411 240° Southwest 359 413 34,000  Level Boston Center
08:36AM 44.4789 -69.7894 241° Southwest 359 413 34,000  Level Boston Center
08:37AM 44.4294 -69.9139 241° Southwest 364 419 34,000  Level Boston Center
08:38AM 44.3800 -70.0350 240° Southwest 364 419 34,000  Level Boston Center
08:39AM 44.3303 -70.1589 241° Southwest 364 419 34,000  Level Boston Center
08:40AM 44.2786 -70.2797 239° Southwest 364 419 34,000  Level Boston Center
08:41AM 44.2308 -70.4003 241° Southwest 364 419 34,000  Level Boston Center
08:42AM 44.1808 -70.5208 240° Southwest 364 419 34,000  Level Boston Center
08:43AM 44.1328 -70.6408 241° Southwest 364 419 34,000  Level Boston Center
08:44AM 44.0864 -70.7492 239° Southwest 364 419 34,000  Level Boston Center
08:45AM 44.0358 -70.8661 239° Southwest 364 419 34,000  Level Boston Center
08:46AM 43.9875 -70.9858 241° Southwest 364 419 34,000  Level Boston Center
08:47AM 43.9369 -71.1022 239° Southwest 364 419 34,000  Level Boston Center
08:48AM 43.8861 -71.2244 240° Southwest 364 419 34,000  Level Boston Center
08:49AM 43.8372 -71.3406 240° Southwest 364 419 34,000  Level Boston Center
08:50AM 43.7861 -71.4567 239° Southwest 364 419 34,000  Level Boston Center
08:51AM 43.7372 -71.5808 241° Southwest 364 419 34,000  Level Boston Center
08:52AM 43.6858 -71.6994 239° Southwest 364 419 34,000  Level Boston Center
08:53AM 43.6344 -71.8206 240° Southwest 364 419 34,000  Level Boston Center
08:54AM 43.5808 -71.9442 239° Southwest 369 425 34,000  Level Boston Center
08:55AM 43.5294 -72.0650 240° Southwest 369 425 34,000  Level Boston Center
08:56AM 43.4775 -72.1856 239° Southwest 369 425 34,000  Level Boston Center
08:57AM 43.4236 -72.3058 238° Southwest 369 425 34,000 -720 Level Boston Center
08:58AM 43.3694 -72.4258 238° Southwest 369 425 32,600 -1,440 Descending Boston Center
08:59AM 43.3047 -72.5742 239° Southwest 369 425 30,900 -1,440 Descending Boston Center
09:00AM 43.2547 -72.6911 240° Southwest 369 425 29,500 -1,380 Descending Boston Center
09:01AM 43.2022 -72.8075 238° Southwest 369 425 28,100 -1,440 Descending Boston Center
09:02AM 43.1517 -72.9181 238° Southwest 363 418 26,700 -1,560 Descending Boston Center
09:03AM 43.1033 -73.0258 238° Southwest 349 402 25,100 -1,800 Descending Boston Center
09:04AM 43.0547 -73.1333 238° Southwest 343 395 23,100 -2,040 Descending Boston Center
09:05AM 43.0083 -73.2381 239° Southwest 338 389 21,100 -2,040 Descending Boston Center
09:06AM 42.9636 -73.3394 239° Southwest 327 376 19,100 -1,080 Descending Boston Center
09:07AM 42.9086 -73.4464 235° Southwest 327 376 19,000 -60 Descending Boston Center
09:08AM 42.8661 -73.5447 239° Southwest 327 376 19,000  Level Boston Center
09:09AM 42.8106 -73.6628 237° Southwest 333 383 19,000  Level Boston Center
09:10AM 42.7678 -73.7608 239° Southwest 339 390 19,000  Level Boston Center
09:11AM 42.6614 -73.7869 190° South 345 397 19,000  Level Boston Center
09:12AM 42.5553 -73.7647 171° South 360 414 19,000  Level Boston Center
09:13AM 42.4450 -73.7400 171° South 390 449 19,000 -300 Level Boston Center
09:14AM 42.3369 -73.7181 171° South 390 449 18,500 -540 Descending Boston Center
09:15AM 42.2306 -73.7272 184° South 381 438 18,000 -720 Descending Boston Center
09:16AM 42.1325 -73.7419 186° South 376 433 17,100 -960 Descending Boston Center
09:17AM 42.0383 -73.7594 188° South 376 433 16,100 -1,080 Descending Boston Center
09:18AM 41.9236 -73.7794 187° South 376 433 15,000 -1,020 Descending Boston Center
09:19AM 41.8317 -73.7969 188° South 376 433 14,100 -1,020 Descending Boston Center
09:20AM 41.7356 -73.8117 187° South 340 391 13,000 -1,080 Descending Boston Center
09:21AM 41.6561 -73.8267 188° South 304 350 12,000 -1,020 Descending Boston Center
09:22AM 41.5767 -73.8497 192° South 293 337 11,000 -1,020 Descending Boston Center
09:23AM 41.5333 -73.8500 180° South 287 330 10,500 -1,020 Descending New York TRACON
09:24AM 41.4667 -73.8833 201° Southwest 282 325 9,500 -1,200 Descending New York TRACON
09:25AM 41.3833 -73.8333 156° South 297 342 8,100 -1,440 Descending New York TRACON
09:26AM 41.3167 -73.7833 151° Southeast 285 328 6,700 -1,500 Descending New York TRACON
09:27AM 41.2500 -73.7500 159° South 284 327 5,100 -1,320 Descending New York TRACON
09:28AM 41.1667 -73.7333 171° South 272 313 4,100 -600 Descending New York TRACON
09:29AM 41.1000 -73.7333 180° South 272 313 4,000 -60 Descending New York TRACON
09:30AM 41.0167 -73.7167 171° South 276 318 4,000  Level New York TRACON
09:31AM 40.9500 -73.7167 180° South 275 316 4,000  Level New York TRACON
09:32AM 40.8833 -73.7000 169° South 271 312 4,000  Level New York TRACON
09:33AM 40.8000 -73.7000 180° South 274 315 4,000  Level New York TRACON
09:34AM 40.7833 -73.7833 255° West 262 302 4,000  Level New York TRACON
09:35AM 40.7833 -73.8833 270° West 249 287 4,000  Level New York TRACON
09:36AM 40.7667 -73.9500 252° West 193 222 4,000  Level New York TRACON
09:37AM 40.7500 -74.0167 252° West 194 223 4,000  Level New York TRACON
09:38AM 40.7167 -74.0500 217° Southwest 197 227 4,000 -360 Level New York TRACON
09:39AM 40.6667 -74.0500 180° South 206 237 3,400 -720 Descending New York TRACON
09:40AM 40.6667 -73.9833 90° East 172 198 2,500 -480 Descending New York TRACON
09:41AM 40.7000 -73.9500 37° Northeast 167 192 2,500 -300 Level New York TRACON
09:42AM 40.7167 -73.9000 66° East 141 162 1,900 -600 Descending New York TRACON
09:43AM 40.7333 -73.8500 66° East 148 170 1,300 -480 Descending New York TRACON
09:44AM 40.7667 -73.8000 49° Northeast 173 199 1,000 -300 Descending New York TRACON